Anassa M — SVA6658 — position and weather

sailwx.info

Track history (hours):
 
Tides and Currents Weather Stations Pressure Air Temp Water Temp Dewpoint Dewpoint Depression Visibility Wind Speed Wind Dir Waves Ship Positions

Anassa M

Last reported at 2018-Jan-23 11:05 UTC. Time now 2018-Jan-23 12:19 UTC.
Position N 40°51' E 024°19'.

Length 102 m; draft 2.4 m.

Type: Passenger vessel. MMSI: 239925700.

Date/timePositionNaut miles runAvg speedWind from/ knotsBaromVisibWave heightAir tempDewpointWater temp
2018-Jan-23 11:05N 40°51' E 024°19'0 3.4
2018-Jan-23 11:00N 40°51' E 024°19'611.6
2018-Jan-23 10:30N 40°50' E 024°27'611.2
2018-Jan-23 10:00N 40°49' E 024°34'611.3
2018-Jan-23 09:30N 40°47' E 024°41'3 5.3
2018-Jan-23 09:00N 40°50' E 024°41'2 3.2
2018-Jan-23 08:27N 40°51' E 024°42'0 0.9
2018-Jan-23 08:00N 40°52' E 024°42'5 9.5
2018-Jan-23 07:30N 40°47' E 024°42'0 0.0
2018-Jan-23 07:00N 40°47' E 024°42'3 6.5
2018-Jan-23 06:30N 40°50' E 024°41'2 3.7
2018-Jan-23 06:00N 40°51' E 024°42'1 1.1
2018-Jan-23 05:30N 40°52' E 024°41'5 9.7
2018-Jan-23 05:00N 40°47' E 024°42'1 2.5
2018-Jan-23 04:30N 40°48' E 024°41'4 7.3
2018-Jan-23 04:00N 40°51' E 024°42'0 0.1
2018-Jan-23 03:30N 40°51' E 024°42'0 0.0
2018-Jan-23 03:01N 40°51' E 024°42'0 0.0
2018-Jan-23 02:30N 40°51' E 024°42'0 0.0
2018-Jan-23 01:57N 40°51' E 024°42'0 0.0
2018-Jan-23 01:27N 40°51' E 024°42'0 0.0
2018-Jan-23 01:00N 40°51' E 024°42'0 0.0
2018-Jan-23 00:27N 40°51' E 024°42'0 0.0
2018-Jan-22 23:57N 40°51' E 024°42'0 0.0
2018-Jan-22 23:27N 40°51' E 024°42'0 0.0
2018-Jan-22 23:00N 40°51' E 024°42'0 0.0
2018-Jan-22 22:30N 40°51' E 024°42'0 0.0
2018-Jan-22 22:00N 40°51' E 024°42'0 0.0
2018-Jan-22 21:27N 40°51' E 024°42'0 0.0
2018-Jan-22 20:57N 40°51' E 024°42'0 0.0
2018-Jan-22 20:27N 40°51' E 024°42'0 0.0
2018-Jan-22 19:57N 40°51' E 024°42'0 0.0
2018-Jan-22 19:27N 40°51' E 024°42'0 0.0
2018-Jan-22 19:00N 40°51' E 024°42'0 0.0
2018-Jan-22 18:30N 40°51' E 024°42'0 0.0
2018-Jan-22 18:00N 40°51' E 024°42'0 0.0
2018-Jan-22 17:30N 40°51' E 024°42'0 0.0
2018-Jan-22 17:00N 40°51' E 024°42'0 0.0
2018-Jan-22 16:30N 40°51' E 024°42'0 0.0
2018-Jan-22 16:00N 40°51' E 024°42'0 0.2
2018-Jan-22 15:31N 40°51' E 024°42'5 9.3
2018-Jan-22 15:00N 40°47' E 024°42'1 1.3
2018-Jan-22 14:30N 40°47' E 024°42'4 8.1
2018-Jan-22 14:00N 40°51' E 024°42'0 0.8
2018-Jan-22 13:30N 40°52' E 024°42'5 9.5
2018-Jan-22 13:01N 40°47' E 024°42'0 0.1
2018-Jan-22 12:29N 40°47' E 024°42'0 0.0
2018-Jan-22 12:00N 40°47' E 024°42'1 1.9
2018-Jan-22 11:30N 40°48' E 024°42'4 7.1
2018-Jan-22 10:58N 40°51' E 024°42'0 0.0
2018-Jan-22 10:28N 40°51' E 024°42'2 5.1
2018-Jan-22 10:00N 40°49' E 024°41'3 5.0
2018-Jan-22 09:30N 40°47' E 024°42'0 0.5
2018-Jan-22 08:59N 40°47' E 024°43'0 0.0
2018-Jan-22 08:29N 40°47' E 024°43'0 0.0
2018-Jan-22 07:59N 40°47' E 024°43'0 0.0
2018-Jan-22 07:29N 40°47' E 024°43'0 0.0
2018-Jan-22 06:59N 40°47' E 024°43'0 0.0
2018-Jan-22 06:29N 40°47' E 024°43'0 0.0
2018-Jan-22 05:59N 40°47' E 024°43'0 0.0
2018-Jan-22 05:29N 40°47' E 024°43'0 0.0
2018-Jan-22 04:56N 40°47' E 024°43'0 0.0
2018-Jan-22 04:26N 40°47' E 024°43'0 0.0
2018-Jan-22 03:59N 40°47' E 024°43'0 0.0
2018-Jan-22 03:26N 40°47' E 024°43'0 0.0
2018-Jan-22 02:59N 40°47' E 024°43'0 0.0
2018-Jan-22 02:26N 40°47' E 024°43'0 0.0
2018-Jan-22 01:56N 40°47' E 024°43'0 0.0
2018-Jan-22 01:29N 40°47' E 024°43'0 0.0
2018-Jan-22 00:59N 40°47' E 024°43'0 0.0
2018-Jan-22 00:29N 40°47' E 024°43'0 0.0
2018-Jan-21 23:59N 40°47' E 024°43'0 0.0
2018-Jan-21 23:29N 40°47' E 024°43'0 0.0
2018-Jan-21 22:59N 40°47' E 024°43'0 0.0
2018-Jan-21 22:26N 40°47' E 024°43'0 0.0
2018-Jan-21 21:56N 40°47' E 024°43'0 0.0
2018-Jan-21 21:26N 40°47' E 024°43'0 0.0
2018-Jan-21 20:59N 40°47' E 024°43'0 0.0
2018-Jan-21 20:26N 40°47' E 024°43'0 0.0
2018-Jan-21 19:59N 40°47' E 024°43'0 0.0
2018-Jan-21 19:26N 40°47' E 024°43'0 0.0
2018-Jan-21 18:59N 40°47' E 024°43'0 0.0
2018-Jan-21 18:26N 40°47' E 024°43'0 0.0
2018-Jan-21 17:56N 40°47' E 024°43'0 0.0
2018-Jan-21 17:29N 40°47' E 024°43'0 0.0
2018-Jan-21 16:59N 40°47' E 024°43'0 0.0
2018-Jan-21 16:29N 40°47' E 024°43'0 0.0
2018-Jan-21 15:59N 40°47' E 024°43'0 0.0
2018-Jan-21 15:29N 40°47' E 024°43'0 0.0
2018-Jan-21 14:59N 40°47' E 024°43'0 0.0
2018-Jan-21 14:29N 40°47' E 024°43'0 0.0
2018-Jan-21 13:59N 40°47' E 024°43'0 0.0
2018-Jan-21 13:29N 40°47' E 024°43'0 0.0
2018-Jan-21 12:59N 40°47' E 024°43'0 0.0
2018-Jan-21 12:29N 40°47' E 024°43'0 0.0
2018-Jan-21 11:50N 40°47' E 024°43'0 0.0
2018-Jan-21 11:29N 40°47' E 024°43'0 0.0
2018-Jan-21 10:59N 40°47' E 024°43'0 0.0
2018-Jan-21 10:26N 40°47' E 024°43'0 0.8
2018-Jan-21 10:00N 40°47' E 024°42'0 0.0
2018-Jan-21 09:31N 40°47' E 024°42'0 0.0
2018-Jan-21 09:01N 40°47' E 024°42'0 0.0
2018-Jan-21 08:31N 40°47' E 024°42'3 6.4
2018-Jan-21 08:01N 40°50' E 024°41'2 3.2
2018-Jan-21 07:28N 40°51' E 024°42'0 1.0
2018-Jan-21 07:00N 40°52' E 024°42'5 9.6
2018-Jan-21 06:30N 40°47' E 024°42'0 0.0
2018-Jan-21 06:00N 40°47' E 024°42'0 0.0
2018-Jan-21 05:30N 40°47' E 024°42'0 0.0
2018-Jan-21 05:00N 40°47' E 024°42'1 2.0
2018-Jan-21 04:30N 40°48' E 024°42'4 7.3
2018-Jan-21 04:00N 40°51' E 024°42'0 0.0
2018-Jan-21 03:28N 40°51' E 024°42'0 0.0
2018-Jan-21 02:58N 40°51' E 024°42'0 0.0
2018-Jan-21 02:28N 40°51' E 024°42'0 0.0
2018-Jan-21 01:55N 40°51' E 024°42'0 0.0
2018-Jan-21 01:25N 40°51' E 024°42'0 0.0
2018-Jan-21 00:55N 40°51' E 024°42'0 0.0
2018-Jan-21 00:25N 40°51' E 024°42'0 0.0
2018-Jan-20 23:55N 40°51' E 024°42'0 0.0
2018-Jan-20 23:25N 40°51' E 024°42'0 0.0
2018-Jan-20 22:55N 40°51' E 024°42'0 0.0
2018-Jan-20 22:25N 40°51' E 024°42'0 0.0
2018-Jan-20 21:55N 40°51' E 024°42'0 0.0
2018-Jan-20 21:25N 40°51' E 024°42'0 0.0
2018-Jan-20 20:55N 40°51' E 024°42'0 0.0
2018-Jan-20 20:28N 40°51' E 024°42'0 0.0
2018-Jan-20 19:58N 40°51' E 024°42'0 0.0
2018-Jan-20 19:25N 40°51' E 024°42'0 0.0
2018-Jan-20 18:55N 40°51' E 024°42'0 0.0
2018-Jan-20 18:25N 40°51' E 024°42'0 0.0
2018-Jan-20 17:58N 40°51' E 024°42'0 0.0
2018-Jan-20 17:28N 40°51' E 024°42'0 0.0
2018-Jan-20 16:58N 40°51' E 024°42'0 0.0
2018-Jan-20 16:28N 40°51' E 024°42'0 0.0
2018-Jan-20 15:58N 40°51' E 024°42'0 0.2
2018-Jan-20 15:30N 40°51' E 024°42'5 9.3
2018-Jan-20 15:01N 40°47' E 024°42'1 1.0
2018-Jan-20 14:30N 40°47' E 024°42'4 8.4
2018-Jan-20 14:00N 40°51' E 024°42'1 1.2
2018-Jan-20 13:30N 40°52' E 024°41'5 9.8
2018-Jan-20 13:00N 40°47' E 024°42'0 0.5
2018-Jan-20 12:27N 40°47' E 024°43'0 0.0
2018-Jan-20 12:00N 40°47' E 024°43'0 0.0
2018-Jan-20 11:30N 40°47' E 024°43'0 0.0
2018-Jan-20 11:00N 40°47' E 024°43'0 0.0
2018-Jan-20 10:30N 40°47' E 024°43'0 0.0
2018-Jan-20 10:00N 40°47' E 024°43'0 0.0
2018-Jan-20 09:30N 40°47' E 024°43'0 0.0
2018-Jan-20 09:00N 40°47' E 024°43'0 0.0
2018-Jan-20 08:30N 40°47' E 024°43'0 0.0
2018-Jan-20 08:00N 40°47' E 024°43'0 0.0
2018-Jan-20 07:30N 40°47' E 024°43'0 0.0
2018-Jan-20 07:00N 40°47' E 024°43'0 0.0
2018-Jan-20 06:30N 40°47' E 024°43'0 0.0
2018-Jan-20 06:00N 40°47' E 024°43'0 0.0
2018-Jan-20 05:30N 40°47' E 024°43'0 0.0
2018-Jan-20 05:00N 40°47' E 024°43'0 0.0
2018-Jan-20 04:30N 40°47' E 024°43'0 0.0
2018-Jan-20 04:00N 40°47' E 024°43'0 0.0
2018-Jan-20 03:30N 40°47' E 024°43'0 0.0
2018-Jan-20 03:00N 40°47' E 024°43'0 0.0
2018-Jan-20 02:30N 40°47' E 024°43'0 0.0
2018-Jan-20 02:00N 40°47' E 024°43'0 0.0
2018-Jan-20 01:30N 40°47' E 024°43'0 0.0
2018-Jan-20 01:00N 40°47' E 024°43'0 0.0
2018-Jan-20 00:30N 40°47' E 024°43'0 0.0
2018-Jan-20 00:00N 40°47' E 024°43'0 0.0
2018-Jan-19 23:30N 40°47' E 024°43'0 0.0
2018-Jan-19 23:00N 40°47' E 024°43'0 0.0
2018-Jan-19 22:30N 40°47' E 024°43'0 0.0
2018-Jan-19 22:00N 40°47' E 024°43'0 0.0
2018-Jan-19 21:30N 40°47' E 024°43'0 0.0
2018-Jan-19 21:00N 40°47' E 024°43'0 0.0
2018-Jan-19 20:30N 40°47' E 024°43'0 0.0
2018-Jan-19 20:00N 40°47' E 024°43'0 0.0
2018-Jan-19 19:30N 40°47' E 024°43'0 0.0
2018-Jan-19 19:00N 40°47' E 024°43'0 0.0
2018-Jan-19 18:30N 40°47' E 024°43'0 0.0
2018-Jan-19 18:00N 40°47' E 024°43'0 0.0
2018-Jan-19 17:30N 40°47' E 024°43'0 0.0
2018-Jan-19 17:00N 40°47' E 024°43'0 0.0
2018-Jan-19 16:30N 40°47' E 024°43'0 0.0
2018-Jan-19 16:00N 40°47' E 024°43'0 0.0
2018-Jan-19 15:30N 40°47' E 024°43'0 0.0
2018-Jan-19 14:57N 40°47' E 024°43'0 0.0
2018-Jan-19 14:27N 40°47' E 024°43'0 0.0
2018-Jan-19 13:57N 40°47' E 024°43'0 0.0
2018-Jan-19 13:30N 40°47' E 024°43'0 0.0
2018-Jan-19 13:00N 40°47' E 024°43'0 0.0
2018-Jan-19 12:27N 40°47' E 024°43'0 0.0
2018-Jan-19 12:00N 40°47' E 024°43'0 0.0
2018-Jan-19 11:30N 40°47' E 024°43'0 0.5
2018-Jan-19 11:01N 40°47' E 024°42'3 6.7
2018-Jan-19 10:30N 40°50' E 024°41'2 2.9
2018-Jan-19 09:58N 40°51' E 024°42'1 1.3
2018-Jan-19 09:31N 40°52' E 024°41'5 9.1
2018-Jan-19 08:58N 40°47' E 024°42'0 0.0
2018-Jan-19 08:23N 40°47' E 024°42'3 8.7
2018-Jan-19 08:00N 40°50' E 024°41'2 3.2
2018-Jan-19 07:28N 40°51' E 024°42'1 1.3
2018-Jan-19 07:01N 40°52' E 024°41'5 9.6
2018-Jan-19 06:30N 40°47' E 024°42'0 0.0
2018-Jan-19 06:00N 40°47' E 024°42'0 0.0
2018-Jan-19 05:30N 40°47' E 024°42'0 0.0
2018-Jan-19 05:00N 40°47' E 024°42'1 2.0
2018-Jan-19 04:31N 40°48' E 024°42'4 7.4
2018-Jan-19 04:00N 40°51' E 024°42'0 0.0
2018-Jan-19 03:31N 40°51' E 024°42'0 0.0
2018-Jan-19 03:01N 40°51' E 024°42'0 0.0
2018-Jan-19 02:30N 40°51' E 024°42'0 0.0
2018-Jan-19 02:00N 40°51' E 024°42'0 0.0
2018-Jan-19 01:31N 40°51' E 024°42'0 0.0
2018-Jan-19 01:01N 40°51' E 024°42'0 0.0
2018-Jan-19 00:31N 40°51' E 024°42'0 0.0
2018-Jan-19 00:01N 40°51' E 024°42'0 0.0
2018-Jan-18 23:30N 40°51' E 024°42'0 0.0
2018-Jan-18 23:01N 40°51' E 024°42'0 0.0
2018-Jan-18 22:31N 40°51' E 024°42'0 0.0
2018-Jan-18 22:00N 40°51' E 024°42'0 0.0
2018-Jan-18 21:31N 40°51' E 024°42'0 0.0
2018-Jan-18 21:01N 40°51' E 024°42'0 0.0
2018-Jan-18 20:31N 40°51' E 024°42'0 0.0
2018-Jan-18 19:59N 40°51' E 024°42'0 0.0
2018-Jan-18 19:31N 40°51' E 024°42'0 0.0
2018-Jan-18 19:00N 40°51' E 024°42'0 0.0
2018-Jan-18 18:30N 40°51' E 024°42'0 0.0
2018-Jan-18 18:00N 40°51' E 024°42'0 0.0
2018-Jan-18 17:31N 40°51' E 024°42'0 0.0
2018-Jan-18 17:01N 40°51' E 024°42'0 0.0
2018-Jan-18 16:31N 40°51' E 024°42'0 0.0
2018-Jan-18 16:00N 40°51' E 024°42'1 2.8
2018-Jan-18 15:31N 40°51' E 024°41'4 7.8
2018-Jan-18 15:00N 40°47' E 024°42'0 0.0
2018-Jan-18 14:30N 40°47' E 024°42'0 0.0
2018-Jan-18 14:00N 40°47' E 024°42'0 0.0
2018-Jan-18 13:30N 40°47' E 024°42'0 0.0
2018-Jan-18 13:00N 40°47' E 024°42'0 0.0
2018-Jan-18 12:30N 40°47' E 024°42'0 0.0
2018-Jan-18 12:00N 40°47' E 024°42'0 0.0
2018-Jan-18 11:27N 40°47' E 024°42'0 0.0
2018-Jan-18 10:54N 40°47' E 024°42'0 0.0
2018-Jan-18 10:30N 40°47' E 024°42'0 0.0
2018-Jan-18 10:00N 40°47' E 024°42'0 0.0
2018-Jan-18 09:30N 40°47' E 024°42'2 4.8
2018-Jan-18 09:00N 40°48' E 024°40'611.2
2018-Jan-18 08:30N 40°50' E 024°33'610.8
2018-Jan-18 08:00N 40°50' E 024°26'510.1
2018-Jan-18 07:30N 40°51' E 024°19'0 0.1
2018-Jan-18 06:55N 40°51' E 024°19'0 0.0
2018-Jan-18 06:28N 40°51' E 024°19'0 0.0
2018-Jan-18 05:58N 40°51' E 024°19'0 0.0
2018-Jan-18 05:28N 40°51' E 024°19'0 0.0
2018-Jan-18 04:58N 40°51' E 024°19'0 0.0
2018-Jan-18 04:28N 40°51' E 024°19'0 0.0
2018-Jan-18 03:58N 40°51' E 024°19'0 0.0
2018-Jan-18 03:28N 40°51' E 024°19'0 0.0
2018-Jan-18 02:58N 40°51' E 024°19'0 0.0
2018-Jan-18 02:25N 40°51' E 024°19'0 0.0
2018-Jan-18 01:58N 40°51' E 024°19'0 0.0
2018-Jan-18 01:28N 40°51' E 024°19'0 0.0
2018-Jan-18 00:55N 40°51' E 024°19'0 0.0
2018-Jan-17 23:58N 40°51' E 024°19'0 0.0
2018-Jan-17 23:55N 40°51' E 024°19'  
Track history (hours):
 
Tides and Currents Weather Stations Pressure Air Temp Water Temp Dewpoint Dewpoint Depression Visibility Wind Speed Wind Dir Waves Ship Positions

Anassa M

Last reported at 2018-Jan-23 11:05 UTC. Time now 2018-Jan-23 12:19 UTC.
Position N 40°51' E 024°19'.

Length 102 m; draft 2.4 m.

Type: Passenger vessel. MMSI: 239925700.

Date/timePositionNaut miles runAvg speedWind from/ knotsBaromVisibWave heightAir tempDewpointWater temp
2018-Jan-23 11:05N 40°51' E 024°19'0 3.4
2018-Jan-23 11:00N 40°51' E 024°19'611.6
2018-Jan-23 10:30N 40°50' E 024°27'611.2
2018-Jan-23 10:00N 40°49' E 024°34'611.3
2018-Jan-23 09:30N 40°47' E 024°41'3 5.3
2018-Jan-23 09:00N 40°50' E 024°41'2 3.2
2018-Jan-23 08:27N 40°51' E 024°42'0 0.9
2018-Jan-23 08:00N 40°52' E 024°42'5 9.5
2018-Jan-23 07:30N 40°47' E 024°42'0 0.0
2018-Jan-23 07:00N 40°47' E 024°42'3 6.5
2018-Jan-23 06:30N 40°50' E 024°41'2 3.7
2018-Jan-23 06:00N 40°51' E 024°42'1 1.1
2018-Jan-23 05:30N 40°52' E 024°41'5 9.7
2018-Jan-23 05:00N 40°47' E 024°42'1 2.5
2018-Jan-23 04:30N 40°48' E 024°41'4 7.3
2018-Jan-23 04:00N 40°51' E 024°42'0 0.1
2018-Jan-23 03:30N 40°51' E 024°42'0 0.0
2018-Jan-23 03:01N 40°51' E 024°42'0 0.0
2018-Jan-23 02:30N 40°51' E 024°42'0 0.0
2018-Jan-23 01:57N 40°51' E 024°42'0 0.0
2018-Jan-23 01:27N 40°51' E 024°42'0 0.0
2018-Jan-23 01:00N 40°51' E 024°42'0 0.0
2018-Jan-23 00:27N 40°51' E 024°42'0 0.0
2018-Jan-22 23:57N 40°51' E 024°42'0 0.0
2018-Jan-22 23:27N 40°51' E 024°42'0 0.0
2018-Jan-22 23:00N 40°51' E 024°42'0 0.0
2018-Jan-22 22:30N 40°51' E 024°42'0 0.0
2018-Jan-22 22:00N 40°51' E 024°42'0 0.0
2018-Jan-22 21:27N 40°51' E 024°42'0 0.0
2018-Jan-22 20:57N 40°51' E 024°42'0 0.0
2018-Jan-22 20:27N 40°51' E 024°42'0 0.0
2018-Jan-22 19:57N 40°51' E 024°42'0 0.0
2018-Jan-22 19:27N 40°51' E 024°42'0 0.0
2018-Jan-22 19:00N 40°51' E 024°42'0 0.0
2018-Jan-22 18:30N 40°51' E 024°42'0 0.0
2018-Jan-22 18:00N 40°51' E 024°42'0 0.0
2018-Jan-22 17:30N 40°51' E 024°42'0 0.0
2018-Jan-22 17:00N 40°51' E 024°42'0 0.0
2018-Jan-22 16:30N 40°51' E 024°42'0 0.0
2018-Jan-22 16:00N 40°51' E 024°42'0 0.2
2018-Jan-22 15:31N 40°51' E 024°42'5 9.3
2018-Jan-22 15:00N 40°47' E 024°42'1 1.3
2018-Jan-22 14:30N 40°47' E 024°42'4 8.1
2018-Jan-22 14:00N 40°51' E 024°42'0 0.8
2018-Jan-22 13:30N 40°52' E 024°42'5 9.5
2018-Jan-22 13:01N 40°47' E 024°42'0 0.1
2018-Jan-22 12:29N 40°47' E 024°42'0 0.0
2018-Jan-22 12:00N 40°47' E 024°42'1 1.9
2018-Jan-22 11:30N 40°48' E 024°42'4 7.1
2018-Jan-22 10:58N 40°51' E 024°42'0 0.0
2018-Jan-22 10:28N 40°51' E 024°42'2 5.1
2018-Jan-22 10:00N 40°49' E 024°41'3 5.0
2018-Jan-22 09:30N 40°47' E 024°42'0 0.5
2018-Jan-22 08:59N 40°47' E 024°43'0 0.0
2018-Jan-22 08:29N 40°47' E 024°43'0 0.0
2018-Jan-22 07:59N 40°47' E 024°43'0 0.0
2018-Jan-22 07:29N 40°47' E 024°43'0 0.0
2018-Jan-22 06:59N 40°47' E 024°43'0 0.0
2018-Jan-22 06:29N 40°47' E 024°43'0 0.0
2018-Jan-22 05:59N 40°47' E 024°43'0 0.0
2018-Jan-22 05:29N 40°47' E 024°43'0 0.0
2018-Jan-22 04:56N 40°47' E 024°43'0 0.0
2018-Jan-22 04:26N 40°47' E 024°43'0 0.0
2018-Jan-22 03:59N 40°47' E 024°43'0 0.0
2018-Jan-22 03:26N 40°47' E 024°43'0 0.0
2018-Jan-22 02:59N 40°47' E 024°43'0 0.0
2018-Jan-22 02:26N 40°47' E 024°43'0 0.0
2018-Jan-22 01:56N 40°47' E 024°43'0 0.0
2018-Jan-22 01:29N 40°47' E 024°43'0 0.0
2018-Jan-22 00:59N 40°47' E 024°43'0 0.0
2018-Jan-22 00:29N 40°47' E 024°43'0 0.0
2018-Jan-21 23:59N 40°47' E 024°43'0 0.0
2018-Jan-21 23:29N 40°47' E 024°43'0 0.0
2018-Jan-21 22:59N 40°47' E 024°43'0 0.0
2018-Jan-21 22:26N 40°47' E 024°43'0 0.0
2018-Jan-21 21:56N 40°47' E 024°43'0 0.0
2018-Jan-21 21:26N 40°47' E 024°43'0 0.0
2018-Jan-21 20:59N 40°47' E 024°43'0 0.0
2018-Jan-21 20:26N 40°47' E 024°43'0 0.0
2018-Jan-21 19:59N 40°47' E 024°43'0 0.0
2018-Jan-21 19:26N 40°47' E 024°43'0 0.0
2018-Jan-21 18:59N 40°47' E 024°43'0 0.0
2018-Jan-21 18:26N 40°47' E 024°43'0 0.0
2018-Jan-21 17:56N 40°47' E 024°43'0 0.0
2018-Jan-21 17:29N 40°47' E 024°43'0 0.0
2018-Jan-21 16:59N 40°47' E 024°43'0 0.0
2018-Jan-21 16:29N 40°47' E 024°43'0 0.0
2018-Jan-21 15:59N 40°47' E 024°43'0 0.0
2018-Jan-21 15:29N 40°47' E 024°43'0 0.0
2018-Jan-21 14:59N 40°47' E 024°43'0 0.0
2018-Jan-21 14:29N 40°47' E 024°43'0 0.0
2018-Jan-21 13:59N 40°47' E 024°43'0 0.0
2018-Jan-21 13:29N 40°47' E 024°43'0 0.0
2018-Jan-21 12:59N 40°47' E 024°43'0 0.0
2018-Jan-21 12:29N 40°47' E 024°43'0 0.0
2018-Jan-21 11:50N 40°47' E 024°43'0 0.0
2018-Jan-21 11:29N 40°47' E 024°43'0 0.0
2018-Jan-21 10:59N 40°47' E 024°43'0 0.0
2018-Jan-21 10:26N 40°47' E 024°43'0 0.8
2018-Jan-21 10:00N 40°47' E 024°42'0 0.0
2018-Jan-21 09:31N 40°47' E 024°42'0 0.0
2018-Jan-21 09:01N 40°47' E 024°42'0 0.0
2018-Jan-21 08:31N 40°47' E 024°42'3 6.4
2018-Jan-21 08:01N 40°50' E 024°41'2 3.2
2018-Jan-21 07:28N 40°51' E 024°42'0 1.0
2018-Jan-21 07:00N 40°52' E 024°42'5 9.6
2018-Jan-21 06:30N 40°47' E 024°42'0 0.0
2018-Jan-21 06:00N 40°47' E 024°42'0 0.0
2018-Jan-21 05:30N 40°47' E 024°42'0 0.0
2018-Jan-21 05:00N 40°47' E 024°42'1 2.0
2018-Jan-21 04:30N 40°48' E 024°42'4 7.3
2018-Jan-21 04:00N 40°51' E 024°42'0 0.0
2018-Jan-21 03:28N 40°51' E 024°42'0 0.0
2018-Jan-21 02:58N 40°51' E 024°42'0 0.0
2018-Jan-21 02:28N 40°51' E 024°42'0 0.0
2018-Jan-21 01:55N 40°51' E 024°42'0 0.0
2018-Jan-21 01:25N 40°51' E 024°42'0 0.0
2018-Jan-21 00:55N 40°51' E 024°42'0 0.0
2018-Jan-21 00:25N 40°51' E 024°42'0 0.0
2018-Jan-20 23:55N 40°51' E 024°42'0 0.0
2018-Jan-20 23:25N 40°51' E 024°42'0 0.0
2018-Jan-20 22:55N 40°51' E 024°42'0 0.0
2018-Jan-20 22:25N 40°51' E 024°42'0 0.0
2018-Jan-20 21:55N 40°51' E 024°42'0 0.0
2018-Jan-20 21:25N 40°51' E 024°42'0 0.0
2018-Jan-20 20:55N 40°51' E 024°42'0 0.0
2018-Jan-20 20:28N 40°51' E 024°42'0 0.0
2018-Jan-20 19:58N 40°51' E 024°42'0 0.0
2018-Jan-20 19:25N 40°51' E 024°42'0 0.0
2018-Jan-20 18:55N 40°51' E 024°42'0 0.0
2018-Jan-20 18:25N 40°51' E 024°42'0 0.0
2018-Jan-20 17:58N 40°51' E 024°42'0 0.0
2018-Jan-20 17:28N 40°51' E 024°42'0 0.0
2018-Jan-20 16:58N 40°51' E 024°42'0 0.0
2018-Jan-20 16:28N 40°51' E 024°42'0 0.0
2018-Jan-20 15:58N 40°51' E 024°42'0 0.2
2018-Jan-20 15:30N 40°51' E 024°42'5 9.3
2018-Jan-20 15:01N 40°47' E 024°42'1 1.0
2018-Jan-20 14:30N 40°47' E 024°42'4 8.4
2018-Jan-20 14:00N 40°51' E 024°42'1 1.2
2018-Jan-20 13:30N 40°52' E 024°41'5 9.8
2018-Jan-20 13:00N 40°47' E 024°42'0 0.5
2018-Jan-20 12:27N 40°47' E 024°43'0 0.0
2018-Jan-20 12:00N 40°47' E 024°43'0 0.0
2018-Jan-20 11:30N 40°47' E 024°43'0 0.0
2018-Jan-20 11:00N 40°47' E 024°43'0 0.0
2018-Jan-20 10:30N 40°47' E 024°43'0 0.0
2018-Jan-20 10:00N 40°47' E 024°43'0 0.0
2018-Jan-20 09:30N 40°47' E 024°43'0 0.0
2018-Jan-20 09:00N 40°47' E 024°43'0 0.0
2018-Jan-20 08:30N 40°47' E 024°43'0 0.0
2018-Jan-20 08:00N 40°47' E 024°43'0 0.0
2018-Jan-20 07:30N 40°47' E 024°43'0 0.0
2018-Jan-20 07:00N 40°47' E 024°43'0 0.0
2018-Jan-20 06:30N 40°47' E 024°43'0 0.0
2018-Jan-20 06:00N 40°47' E 024°43'0 0.0
2018-Jan-20 05:30N 40°47' E 024°43'0 0.0
2018-Jan-20 05:00N 40°47' E 024°43'0 0.0
2018-Jan-20 04:30N 40°47' E 024°43'0 0.0
2018-Jan-20 04:00N 40°47' E 024°43'0 0.0
2018-Jan-20 03:30N 40°47' E 024°43'0 0.0
2018-Jan-20 03:00N 40°47' E 024°43'0 0.0
2018-Jan-20 02:30N 40°47' E 024°43'0 0.0
2018-Jan-20 02:00N 40°47' E 024°43'0 0.0
2018-Jan-20 01:30N 40°47' E 024°43'0 0.0
2018-Jan-20 01:00N 40°47' E 024°43'0 0.0
2018-Jan-20 00:30N 40°47' E 024°43'0 0.0
2018-Jan-20 00:00N 40°47' E 024°43'0 0.0
2018-Jan-19 23:30N 40°47' E 024°43'0 0.0
2018-Jan-19 23:00N 40°47' E 024°43'0 0.0
2018-Jan-19 22:30N 40°47' E 024°43'0 0.0
2018-Jan-19 22:00N 40°47' E 024°43'0 0.0
2018-Jan-19 21:30N 40°47' E 024°43'0 0.0
2018-Jan-19 21:00N 40°47' E 024°43'0 0.0
2018-Jan-19 20:30N 40°47' E 024°43'0 0.0
2018-Jan-19 20:00N 40°47' E 024°43'0 0.0
2018-Jan-19 19:30N 40°47' E 024°43'0 0.0
2018-Jan-19 19:00N 40°47' E 024°43'0 0.0
2018-Jan-19 18:30N 40°47' E 024°43'0 0.0
2018-Jan-19 18:00N 40°47' E 024°43'0 0.0
2018-Jan-19 17:30N 40°47' E 024°43'0 0.0
2018-Jan-19 17:00N 40°47' E 024°43'0 0.0
2018-Jan-19 16:30N 40°47' E 024°43'0 0.0
2018-Jan-19 16:00N 40°47' E 024°43'0 0.0
2018-Jan-19 15:30N 40°47' E 024°43'0 0.0
2018-Jan-19 14:57N 40°47' E 024°43'0 0.0
2018-Jan-19 14:27N 40°47' E 024°43'0 0.0
2018-Jan-19 13:57N 40°47' E 024°43'0 0.0
2018-Jan-19 13:30N 40°47' E 024°43'0 0.0
2018-Jan-19 13:00N 40°47' E 024°43'0 0.0
2018-Jan-19 12:27N 40°47' E 024°43'0 0.0
2018-Jan-19 12:00N 40°47' E 024°43'0 0.0
2018-Jan-19 11:30N 40°47' E 024°43'0 0.5
2018-Jan-19 11:01N 40°47' E 024°42'3 6.7
2018-Jan-19 10:30N 40°50' E 024°41'2 2.9
2018-Jan-19 09:58N 40°51' E 024°42'1 1.3
2018-Jan-19 09:31N 40°52' E 024°41'5 9.1
2018-Jan-19 08:58N 40°47' E 024°42'0 0.0
2018-Jan-19 08:23N 40°47' E 024°42'3 8.7
2018-Jan-19 08:00N 40°50' E 024°41'2 3.2
2018-Jan-19 07:28N 40°51' E 024°42'1 1.3
2018-Jan-19 07:01N 40°52' E 024°41'5 9.6
2018-Jan-19 06:30N 40°47' E 024°42'0 0.0
2018-Jan-19 06:00N 40°47' E 024°42'0 0.0
2018-Jan-19 05:30N 40°47' E 024°42'0 0.0
2018-Jan-19 05:00N 40°47' E 024°42'1 2.0
2018-Jan-19 04:31N 40°48' E 024°42'4 7.4
2018-Jan-19 04:00N 40°51' E 024°42'0 0.0
2018-Jan-19 03:31N 40°51' E 024°42'0 0.0
2018-Jan-19 03:01N 40°51' E 024°42'0 0.0
2018-Jan-19 02:30N 40°51' E 024°42'0 0.0
2018-Jan-19 02:00N 40°51' E 024°42'0 0.0
2018-Jan-19 01:31N 40°51' E 024°42'0 0.0
2018-Jan-19 01:01N 40°51' E 024°42'0 0.0
2018-Jan-19 00:31N 40°51' E 024°42'0 0.0
2018-Jan-19 00:01N 40°51' E 024°42'0 0.0
2018-Jan-18 23:30N 40°51' E 024°42'0 0.0
2018-Jan-18 23:01N 40°51' E 024°42'0 0.0
2018-Jan-18 22:31N 40°51' E 024°42'0 0.0
2018-Jan-18 22:00N 40°51' E 024°42'0 0.0
2018-Jan-18 21:31N 40°51' E 024°42'0 0.0
2018-Jan-18 21:01N 40°51' E 024°42'0 0.0
2018-Jan-18 20:31N 40°51' E 024°42'0 0.0
2018-Jan-18 19:59N 40°51' E 024°42'0 0.0
2018-Jan-18 19:31N 40°51' E 024°42'0 0.0
2018-Jan-18 19:00N 40°51' E 024°42'0 0.0
2018-Jan-18 18:30N 40°51' E 024°42'0 0.0
2018-Jan-18 18:00N 40°51' E 024°42'0 0.0
2018-Jan-18 17:31N 40°51' E 024°42'0 0.0
2018-Jan-18 17:01N 40°51' E 024°42'0 0.0
2018-Jan-18 16:31N 40°51' E 024°42'0 0.0
2018-Jan-18 16:00N 40°51' E 024°42'1 2.8
2018-Jan-18 15:31N 40°51' E 024°41'4 7.8
2018-Jan-18 15:00N 40°47' E 024°42'0 0.0
2018-Jan-18 14:30N 40°47' E 024°42'0 0.0
2018-Jan-18 14:00N 40°47' E 024°42'0 0.0
2018-Jan-18 13:30N 40°47' E 024°42'0 0.0
2018-Jan-18 13:00N 40°47' E 024°42'0 0.0
2018-Jan-18 12:30N 40°47' E 024°42'0 0.0
2018-Jan-18 12:00N 40°47' E 024°42'0 0.0
2018-Jan-18 11:27N 40°47' E 024°42'0 0.0
2018-Jan-18 10:54N 40°47' E 024°42'0 0.0
2018-Jan-18 10:30N 40°47' E 024°42'0 0.0
2018-Jan-18 10:00N 40°47' E 024°42'0 0.0
2018-Jan-18 09:30N 40°47' E 024°42'2 4.8
2018-Jan-18 09:00N 40°48' E 024°40'611.2
2018-Jan-18 08:30N 40°50' E 024°33'610.8
2018-Jan-18 08:00N 40°50' E 024°26'510.1
2018-Jan-18 07:30N 40°51' E 024°19'0 0.1
2018-Jan-18 06:55N 40°51' E 024°19'0 0.0
2018-Jan-18 06:28N 40°51' E 024°19'0 0.0
2018-Jan-18 05:58N 40°51' E 024°19'0 0.0
2018-Jan-18 05:28N 40°51' E 024°19'0 0.0
2018-Jan-18 04:58N 40°51' E 024°19'0 0.0
2018-Jan-18 04:28N 40°51' E 024°19'0 0.0
2018-Jan-18 03:58N 40°51' E 024°19'0 0.0
2018-Jan-18 03:28N 40°51' E 024°19'0 0.0
2018-Jan-18 02:58N 40°51' E 024°19'0 0.0
2018-Jan-18 02:25N 40°51' E 024°19'0 0.0
2018-Jan-18 01:58N 40°51' E 024°19'0 0.0
2018-Jan-18 01:28N 40°51' E 024°19'0 0.0
2018-Jan-18 00:55N 40°51' E 024°19'0 0.0
2018-Jan-17 23:58N 40°51' E 024°19'0 0.0
2018-Jan-17 23:55N 40°51' E 024°19'  

Dump ship's entire track history